Aérodrome :
LOGIN :

S'inscrire | Disclaimer

   EN    FR    IT 

 










Légende :    VFR   VFR Marginal   IFR   IFR Intensif   IFR Très Intensif
Visi : 
Plafond : 
>= 8 km
>= 3000ft
5 à 8 km
1000 à 3000 ft
1500m à 5 km
500 à 1000 ft
800 à 1500m
200 à 500 ft
< 800m
< 200 ft
Symboles :   Orages  Brouillard  Fortes neiges  Fortes précipitations  Vent > 20 kt
SIGMETs :   Divers  Orages  Givrage  Turbulence  Onde Orograph.  Cendres Volcan.







- Altitude de l'aérodrome : 156 ft
- Code IATA : LCC


LIBN - Lecce Galatine (military)

DERNIER METAR :
  • 261155Z 35007KT 9999 SCT025 19/12 Q1010 RMK BKN SCT200 VIS MIN 9999 WIND THR14 VRB01KT WIND THR32 34008KT BLU

METARs EXPIRÉS :
  • 261055Z 04006KT 9999 SCT025 20/09 Q1010 RMK BKN SCT200 VIS MIN 9999 WIND THR14 04002KT WIND THR32 02006KT BLU
  • 260955Z 04003KT 9999 FEW025 19/09 Q1010 RMK BKN BKN200 VIS MIN 9999 WIND THR14 06002KT WIND THR32 34002KT BLU
  • 260855Z 19002KT CAVOK 18/09 Q1010 RMK BKN BKN200 VIS MIN 9999 WIND THR14 26004KT WIND THR32 16002KT BLU

TAF TAF LIBN
Valide du 26 à 12h jusqu'au 26 à 21h UTC


261100Z 2612/2621 03008KT 9999 SCT020
BECMG 2618/2620 VRB03KT
Pas de NOTAMs connus pour ce terrain.
1 SIGMET publié pour la FIR Brindisi (LIBB) :
 
Orages noyés dans la masse
LIBB SIGMET 2 VALID 261130/261430 LIIB
LIBB BRINDISI FIR EMBD TS FCST N OF LINE N4043 E01456 - N4205 E01718 TOP FL270 STNR WKN=



MET'MAP, la Météo Aéronautique d'un coup d'oeil ! - Copyright ORBIFLY Décembre 2007 - Disclaimer

ORBIFLY MET'MAP TEAM :

Programmation & Développement : Alexandra Zaïnal
Conception & Développement : Baudouin d'Aumeries
Co-Programmation & Développement : Marc-Olivier Méhu
Soutien technique & logistique : Manuel Goepfert

Contact : metmap@orbifly.com




SOURCES & CREDITS :

   NOAA